createdAt,value
2018-02-03T00:01:43.088Z,3.70
2018-02-03T00:04:11.399Z,3.50
2018-02-03T00:06:38.946Z,3.50
2018-02-03T00:09:06.459Z,3.50
2018-02-03T00:11:33.968Z,3.70
2018-02-03T00:14:01.507Z,3.60
2018-02-03T00:16:29.039Z,3.50
2018-02-03T00:18:57.311Z,3.50
2018-02-03T00:21:24.864Z,3.50
2018-02-03T00:23:52.401Z,3.50
2018-02-03T00:26:19.935Z,3.50
2018-02-03T00:28:47.468Z,3.50
2018-02-03T00:31:14.980Z,3.50
2018-02-03T00:33:42.514Z,3.60
2018-02-03T00:36:10.027Z,3.50
2018-02-03T00:38:38.341Z,3.40
2018-02-03T00:41:05.854Z,3.40
2018-02-03T00:43:33.363Z,3.40
2018-02-03T00:46:01.672Z,3.20
2018-02-03T00:48:29.181Z,3.20
2018-02-03T00:50:56.688Z,3.20
2018-02-03T00:53:24.992Z,3.10
2018-02-03T00:55:53.271Z,3.30
2018-02-03T00:58:21.587Z,3.20
2018-02-03T01:00:49.104Z,3.20
2018-02-03T01:03:16.640Z,3.20
2018-02-03T01:05:44.152Z,3.20
2018-02-03T01:08:11.686Z,3.20
2018-02-03T01:10:39.215Z,3.40
2018-02-03T01:13:07.510Z,3.20
2018-02-03T01:15:35.818Z,3.20
2018-02-03T01:18:03.335Z,3.20
2018-02-03T01:20:30.878Z,3.20
2018-02-03T01:22:58.391Z,3.10
2018-02-03T01:25:25.904Z,3.10
2018-02-03T01:27:53.455Z,3.20
2018-02-03T01:30:21.730Z,3.30
2018-02-03T01:32:49.262Z,3.30
2018-02-03T01:35:16.802Z,3.20
2018-02-03T01:37:44.306Z,3.30
2018-02-03T01:40:11.821Z,3.30
2018-02-03T01:42:40.140Z,3.20
2018-02-03T01:45:07.656Z,3.20
2018-02-03T01:50:33.647Z,3.30
2018-02-03T01:53:01.195Z,3.30
2018-02-03T01:55:29.480Z,3.40
2018-02-03T01:57:57.032Z,3.40
2018-02-03T02:00:24.596Z,3.40
2018-02-03T02:02:52.124Z,3.30
2018-02-03T02:05:19.634Z,3.30
2018-02-03T02:07:47.139Z,3.30
2018-02-03T02:10:14.672Z,3.30
2018-02-03T02:12:42.183Z,3.40
2018-02-03T02:15:09.721Z,3.30
2018-02-03T02:17:37.230Z,3.30
2018-02-03T02:20:04.768Z,3.30
2018-02-03T02:22:32.278Z,3.30
2018-02-03T02:24:59.820Z,3.30
2018-02-03T02:27:27.343Z,3.30
2018-02-03T02:29:54.887Z,3.20
2018-02-03T02:32:22.392Z,3.20
2018-02-03T02:34:50.666Z,3.30
2018-02-03T02:37:18.207Z,3.20
2018-02-03T02:39:45.717Z,3.30
2018-02-03T02:42:13.252Z,3.20
2018-02-03T02:44:40.771Z,3.20
2018-02-03T02:47:08.307Z,3.10
2018-02-03T02:49:35.852Z,3.10
2018-02-03T02:52:03.398Z,3.10
2018-02-03T02:54:30.936Z,3.20
2018-02-03T02:56:58.460Z,3.10
2018-02-03T02:59:25.996Z,3.20
2018-02-03T03:01:54.300Z,3.00
2018-02-03T03:04:21.830Z,3.00
2018-02-03T03:06:50.107Z,3.10
2018-02-03T03:09:17.651Z,3.10
2018-02-03T03:11:45.169Z,3.10
2018-02-03T03:14:12.707Z,3.10
2018-02-03T03:16:40.234Z,3.00
2018-02-03T03:19:08.513Z,3.00
2018-02-03T03:21:36.048Z,3.00
2018-02-03T03:24:03.555Z,3.00
2018-02-03T03:26:31.091Z,3.00
2018-02-03T03:28:58.608Z,3.00
2018-02-03T03:31:26.909Z,3.00
2018-02-03T03:33:54.431Z,2.90
2018-02-03T03:36:21.965Z,2.90
2018-02-03T03:38:49.484Z,2.90
2018-02-03T03:41:17.023Z,2.90
2018-02-03T03:43:44.528Z,2.90
2018-02-03T03:46:12.040Z,2.90
2018-02-03T03:48:39.566Z,2.90
2018-02-03T03:51:07.098Z,2.90
2018-02-03T03:53:34.640Z,2.90
2018-02-03T03:56:02.911Z,2.90
2018-02-03T03:58:30.443Z,2.90
2018-02-03T04:00:57.951Z,2.90
2018-02-03T04:03:25.487Z,2.90
2018-02-03T04:05:52.994Z,2.80
2018-02-03T04:08:20.555Z,2.80
2018-02-03T04:10:48.072Z,2.80
2018-02-03T04:13:15.586Z,2.80
2018-02-03T04:15:43.131Z,2.70
2018-02-03T04:18:10.635Z,2.70
2018-02-03T04:20:38.167Z,2.80
2018-02-03T04:23:05.671Z,2.80
2018-02-03T04:25:33.207Z,2.80
2018-02-03T04:28:00.720Z,2.90
2018-02-03T04:30:28.306Z,2.80
2018-02-03T04:32:55.791Z,2.90
2018-02-03T04:35:23.323Z,2.80
2018-02-03T04:37:50.826Z,2.90
2018-02-03T04:40:18.354Z,2.90
2018-02-03T04:42:45.859Z,2.90
2018-02-03T04:45:13.400Z,2.90
2018-02-03T04:47:40.906Z,2.90
2018-02-03T04:50:08.441Z,2.90
2018-02-03T04:52:35.954Z,2.90
2018-02-03T04:55:03.516Z,2.90
2018-02-03T04:57:31.019Z,2.90
2018-02-03T04:59:59.323Z,2.70
2018-02-03T05:02:26.832Z,2.70
2018-02-03T05:04:54.361Z,2.70
2018-02-03T05:07:21.863Z,2.70
2018-02-03T05:09:49.412Z,2.70
2018-02-03T05:12:16.919Z,2.70
2018-02-03T05:14:44.429Z,2.70
2018-02-03T05:17:12.759Z,2.70
2018-02-03T05:19:40.272Z,2.70
2018-02-03T05:22:07.801Z,2.70
2018-02-03T05:24:35.299Z,2.70
2018-02-03T05:27:02.831Z,2.80
2018-02-03T05:29:30.343Z,2.80
2018-02-03T05:31:57.875Z,2.80
2018-02-03T05:34:25.389Z,2.70
2018-02-03T05:36:52.918Z,2.70
2018-02-03T05:39:20.435Z,2.70
2018-02-03T05:41:47.963Z,2.80
2018-02-03T05:44:16.329Z,2.70
2018-02-03T05:46:44.644Z,2.80
2018-02-03T05:49:12.258Z,2.80
2018-02-03T05:51:39.767Z,2.70
2018-02-03T05:54:08.075Z,2.70
2018-02-03T05:56:35.583Z,2.70
2018-02-03T05:59:03.119Z,2.70
2018-02-03T06:01:30.659Z,2.70
2018-02-03T06:03:58.967Z,2.70
2018-02-03T06:06:26.528Z,2.70
2018-02-03T06:08:54.807Z,2.70
2018-02-03T06:11:23.111Z,2.60
2018-02-03T06:13:50.615Z,2.60
2018-02-03T06:16:18.171Z,2.60
2018-02-03T06:18:46.447Z,2.70
2018-02-03T06:21:13.953Z,2.70
2018-02-03T06:23:41.487Z,2.70
2018-02-03T06:26:09.793Z,2.70
2018-02-03T06:28:37.326Z,2.60
2018-02-03T06:31:04.863Z,2.70
2018-02-03T06:33:32.371Z,2.70
2018-02-03T06:36:00.675Z,2.80
2018-02-03T06:38:28.967Z,2.80
2018-02-03T06:40:57.396Z,2.80
2018-02-03T06:43:25.942Z,2.70
2018-02-03T06:45:54.215Z,2.70
2018-02-03T06:48:21.751Z,2.60
2018-02-03T06:50:49.283Z,2.60
2018-02-03T06:53:17.551Z,2.60
2018-02-03T06:55:45.662Z,2.60
2018-02-03T06:58:13.954Z,2.60
2018-02-03T07:00:41.516Z,2.60
2018-02-03T07:03:09.799Z,2.50
2018-02-03T07:05:38.071Z,2.60
2018-02-03T07:08:05.603Z,2.50
2018-02-03T07:10:33.147Z,2.60
2018-02-03T07:13:00.663Z,2.50
2018-02-03T07:15:28.178Z,2.60
2018-02-03T07:17:56.484Z,2.50
2018-02-03T07:20:24.008Z,2.50
2018-02-03T07:22:51.538Z,2.50
2018-02-03T07:25:20.461Z,2.50
2018-02-03T07:27:48.007Z,2.50
2018-02-03T07:30:15.530Z,2.50
2018-02-03T07:32:43.072Z,2.50
2018-02-03T07:35:10.585Z,2.50
2018-02-03T07:37:38.123Z,2.60
2018-02-03T07:40:05.667Z,2.60
2018-02-03T07:42:33.189Z,2.70
2018-02-03T07:45:00.743Z,2.70
2018-02-03T07:47:28.259Z,2.70
2018-02-03T07:49:55.795Z,2.90
2018-02-03T07:52:23.363Z,2.80
2018-02-03T07:54:50.879Z,2.80
2018-02-03T07:57:19.199Z,2.70
2018-02-03T07:59:46.715Z,2.70
2018-02-03T08:02:14.227Z,2.70
2018-02-03T08:04:41.779Z,2.80
2018-02-03T08:07:10.056Z,2.90
2018-02-03T08:09:38.363Z,2.90
2018-02-03T08:12:06.657Z,2.90
2018-02-03T08:14:34.195Z,2.90
2018-02-03T08:17:02.517Z,2.90
2018-02-03T08:19:30.035Z,2.90
2018-02-03T08:21:57.579Z,3.00
2018-02-03T08:24:25.119Z,3.00
2018-02-03T08:26:53.519Z,3.00
2018-02-03T08:29:21.023Z,3.00
2018-02-03T08:31:48.539Z,3.10
2018-02-03T08:34:16.067Z,3.00
2018-02-03T08:36:43.602Z,3.10
2018-02-03T08:39:11.911Z,3.20
2018-02-03T08:41:39.432Z,3.20
2018-02-03T08:44:06.984Z,3.30
2018-02-03T08:46:34.547Z,3.30
2018-02-03T08:49:02.101Z,3.30
2018-02-03T08:51:29.643Z,3.40
2018-02-03T08:53:57.920Z,3.50
2018-02-03T08:56:25.450Z,3.50
2018-02-03T08:58:52.964Z,3.50
2018-02-03T09:01:20.611Z,3.50
2018-02-03T09:03:48.161Z,3.60
2018-02-03T09:06:15.758Z,3.70
2018-02-03T09:08:43.330Z,3.80
2018-02-03T09:11:10.871Z,3.80
2018-02-03T09:13:38.540Z,3.80
2018-02-03T09:16:06.093Z,3.70
2018-02-03T09:18:34.383Z,3.70
2018-02-03T09:21:03.515Z,3.70
2018-02-03T09:23:32.427Z,3.70
2018-02-03T09:25:59.944Z,3.70
2018-02-03T09:28:27.471Z,3.60
2018-02-03T09:30:55.043Z,3.70
2018-02-03T09:33:22.617Z,3.70
2018-02-03T09:35:50.160Z,3.80
2018-02-03T09:38:17.739Z,3.80
2018-02-03T09:40:45.250Z,3.90
2018-02-03T09:43:12.783Z,3.80
2018-02-03T09:45:40.294Z,3.90
2018-02-03T09:48:07.879Z,4.00
2018-02-03T09:50:35.533Z,4.00
2018-02-03T09:53:03.073Z,4.10
2018-02-03T09:55:33.055Z,4.10
2018-02-03T09:58:04.642Z,4.10
2018-02-03T10:00:34.904Z,4.20
2018-02-03T10:03:25.876Z,4.20
2018-02-03T10:05:53.526Z,4.10
2018-02-03T10:08:21.908Z,4.20
2018-02-03T10:10:49.581Z,4.10
2018-02-03T10:13:17.975Z,4.20
2018-02-03T10:15:45.517Z,4.20
2018-02-03T10:18:13.792Z,4.20
2018-02-03T10:20:41.335Z,4.20
2018-02-03T10:23:08.879Z,4.30
2018-02-03T10:25:36.415Z,4.30
2018-02-03T10:28:04.714Z,4.30
2018-02-03T10:30:33.058Z,4.30
2018-02-03T10:33:00.611Z,4.30
2018-02-03T10:35:28.131Z,4.30
2018-02-03T10:37:55.675Z,4.50
2018-02-03T10:40:23.187Z,4.60
2018-02-03T10:42:51.502Z,4.60
2018-02-03T10:45:19.031Z,4.60
2018-02-03T10:47:46.568Z,4.60
2018-02-03T10:50:14.110Z,4.60
2018-02-03T10:52:41.630Z,4.50
2018-02-03T10:55:09.178Z,4.60
2018-02-03T10:57:36.688Z,4.50
2018-02-03T11:00:04.835Z,4.50
2018-02-03T11:02:32.365Z,4.50
2018-02-03T11:05:00.647Z,4.50
2018-02-03T11:07:28.942Z,4.60
2018-02-03T11:09:57.251Z,4.60
2018-02-03T11:12:24.767Z,4.60
2018-02-03T11:14:52.338Z,4.60
2018-02-03T11:17:19.877Z,4.80
2018-02-03T11:19:47.415Z,4.80
2018-02-03T11:22:15.691Z,5.00
2018-02-03T11:24:43.233Z,5.00
2018-02-03T11:27:10.746Z,5.10
2018-02-03T11:29:39.019Z,5.10
2018-02-03T11:32:06.553Z,5.00
2018-02-03T11:34:34.063Z,4.90
2018-02-03T11:37:02.364Z,5.20
2018-02-03T11:39:30.640Z,5.20
2018-02-03T11:41:58.192Z,5.20
2018-02-03T11:44:26.472Z,5.20
2018-02-03T11:46:54.012Z,5.10
2018-02-03T11:49:21.523Z,5.10
2018-02-03T11:51:49.067Z,5.00
2018-02-03T11:54:16.599Z,5.10
2018-02-03T11:56:44.879Z,5.00
2018-02-03T11:59:12.399Z,5.00
2018-02-03T12:01:39.928Z,5.10
2018-02-03T12:04:08.198Z,4.80
2018-02-03T12:06:35.732Z,4.90
2018-02-03T12:09:03.287Z,4.90
2018-02-03T12:11:30.827Z,4.90
2018-02-03T12:13:58.344Z,5.00
2018-02-03T12:16:25.907Z,5.10
2018-02-03T12:18:53.416Z,5.20
2018-02-03T12:21:20.947Z,5.20
2018-02-03T12:23:48.483Z,5.30
2018-02-03T12:26:15.983Z,5.30
2018-02-03T12:28:43.525Z,5.30
2018-02-03T12:31:11.802Z,5.30
2018-02-03T12:33:39.357Z,5.40
2018-02-03T12:36:06.863Z,5.40
2018-02-03T12:38:35.134Z,5.40
2018-02-03T12:41:02.674Z,5.40
2018-02-03T12:43:30.175Z,5.40
2018-02-03T12:45:57.717Z,5.50
2018-02-03T12:48:25.245Z,5.50
2018-02-03T12:50:53.570Z,5.40
2018-02-03T12:53:21.096Z,5.30
2018-02-03T12:55:48.623Z,5.30
2018-02-03T12:58:16.216Z,5.40
2018-02-03T13:00:43.760Z,5.30
2018-02-03T13:03:11.267Z,5.20
2018-02-03T13:05:38.797Z,5.20
2018-02-03T13:08:06.330Z,5.10
2018-02-03T13:10:33.855Z,5.00
2018-02-03T13:13:01.371Z,5.00
2018-02-03T13:15:29.675Z,5.10
2018-02-03T13:17:57.186Z,5.10
2018-02-03T13:20:24.715Z,5.10
2018-02-03T13:22:52.991Z,5.10
2018-02-03T13:25:20.523Z,5.10
2018-02-03T13:27:48.031Z,5.20
2018-02-03T13:30:15.578Z,5.20
2018-02-03T13:32:43.083Z,5.10
2018-02-03T13:35:11.371Z,5.00
2018-02-03T13:37:39.644Z,4.90
2018-02-03T13:40:07.950Z,4.90
2018-02-03T13:42:36.231Z,4.80
2018-02-03T13:45:03.736Z,4.80
2018-02-03T13:47:31.287Z,5.00
2018-02-03T13:49:59.558Z,5.10
2018-02-03T13:52:27.066Z,5.10
2018-02-03T13:54:54.648Z,5.00
2018-02-03T13:57:22.927Z,4.90
2018-02-03T13:59:50.435Z,4.90
2018-02-03T14:02:17.945Z,5.00
2018-02-03T14:04:45.510Z,5.00
2018-02-03T14:07:13.025Z,5.10
2018-02-03T14:09:40.551Z,5.10
2018-02-03T14:12:08.083Z,5.00
2018-02-03T14:14:35.614Z,5.10
2018-02-03T14:17:03.903Z,5.00
2018-02-03T14:19:32.198Z,4.90
2018-02-03T14:21:59.699Z,4.90
2018-02-03T14:24:32.818Z,4.90
2018-02-03T14:27:00.324Z,4.80
2018-02-03T14:29:28.615Z,4.60
2018-02-03T14:31:56.923Z,4.60
2018-02-03T14:34:24.447Z,4.60
2018-02-03T14:36:51.963Z,4.70
2018-02-03T14:39:20.256Z,4.60
2018-02-03T14:41:47.840Z,4.60
2018-02-03T14:44:15.395Z,4.60
2018-02-03T14:46:43.671Z,4.60
2018-02-03T14:49:11.955Z,4.60
2018-02-03T14:51:39.479Z,4.60
2018-02-03T14:54:06.981Z,4.70
2018-02-03T14:56:34.571Z,4.60
2018-02-03T14:59:02.087Z,4.40
2018-02-03T15:01:29.664Z,4.30
2018-02-03T15:03:57.207Z,4.40
2018-02-03T15:06:24.727Z,4.40
2018-02-03T15:08:52.276Z,4.40
2018-02-03T15:11:19.802Z,4.40
2018-02-03T15:13:48.130Z,4.40
2018-02-03T15:16:15.635Z,4.40
2018-02-03T15:18:43.154Z,4.30
2018-02-03T15:21:10.687Z,4.40
2018-02-03T15:23:38.207Z,4.40
2018-02-03T15:26:05.743Z,4.40
2018-02-03T15:28:33.252Z,4.40
2018-02-03T15:31:00.782Z,4.30
2018-02-03T15:33:28.306Z,4.30
2018-02-03T15:35:55.816Z,4.20
2018-02-03T15:38:23.355Z,4.30
2018-02-03T15:40:50.883Z,4.30
2018-02-03T15:43:19.195Z,4.30
2018-02-03T15:45:46.728Z,4.30
2018-02-03T15:48:14.232Z,4.40
2018-02-03T15:50:41.853Z,4.40
2018-02-03T15:53:09.383Z,4.30
2018-02-03T15:55:36.917Z,4.20
2018-02-03T15:58:04.419Z,4.20
2018-02-03T16:00:31.958Z,4.10
2018-02-03T16:02:59.483Z,3.90
2018-02-03T16:05:26.991Z,3.80
2018-02-03T16:07:54.528Z,3.80
2018-02-03T16:10:22.088Z,3.90
2018-02-03T16:12:49.593Z,3.80
2018-02-03T16:15:17.107Z,3.80
2018-02-03T16:17:45.455Z,3.70
2018-02-03T16:20:13.007Z,3.70
2018-02-03T16:22:40.506Z,3.60
2018-02-03T16:25:08.056Z,3.50
2018-02-03T16:27:35.583Z,3.50
2018-02-03T16:30:03.867Z,3.50
2018-02-03T16:32:32.180Z,3.50
2018-02-03T16:34:59.712Z,3.50
2018-02-03T16:37:27.291Z,3.60
2018-02-03T16:39:54.825Z,3.50
2018-02-03T16:42:22.403Z,3.40
2018-02-03T16:44:49.939Z,3.30
2018-02-03T16:47:17.531Z,3.30
2018-02-03T16:49:45.055Z,3.30
2018-02-03T16:52:13.327Z,3.30
2018-02-03T16:54:40.871Z,3.30
2018-02-03T16:57:08.389Z,3.20
2018-02-03T16:59:36.687Z,3.20
2018-02-03T17:02:04.963Z,3.20
2018-02-03T17:04:32.491Z,3.20
2018-02-03T17:07:00.014Z,3.10
2018-02-03T17:09:28.315Z,3.10
2018-02-03T17:11:55.841Z,3.10
2018-02-03T17:14:23.379Z,3.20
2018-02-03T17:16:50.884Z,3.10
2018-02-03T17:19:18.419Z,3.20
2018-02-03T17:21:45.936Z,3.20
2018-02-03T17:24:13.476Z,3.10
2018-02-03T17:26:40.995Z,3.10
2018-02-03T17:29:08.523Z,3.10
2018-02-03T17:31:36.030Z,3.00
2018-02-03T17:34:03.571Z,3.10
2018-02-03T17:36:37.583Z,3.20
2018-02-03T17:39:06.179Z,3.10
2018-02-03T17:41:33.688Z,3.10
2018-02-03T17:44:01.203Z,3.20
2018-02-03T17:46:34.383Z,3.30
2018-02-03T17:49:02.696Z,3.40
2018-02-03T17:51:30.235Z,3.40
2018-02-03T17:53:57.755Z,3.40
2018-02-03T17:56:31.087Z,3.40
2018-02-03T17:58:58.593Z,3.40
2018-02-03T18:01:26.162Z,3.40
2018-02-03T18:03:54.435Z,3.40
2018-02-03T18:06:21.989Z,3.40
2018-02-03T18:08:49.519Z,3.40
2018-02-03T18:11:17.137Z,3.50
2018-02-03T18:13:44.622Z,3.50
2018-02-03T18:16:12.130Z,3.50
2018-02-03T18:18:40.428Z,3.20
2018-02-03T18:21:07.943Z,3.20
2018-02-03T18:23:35.488Z,3.20
2018-02-03T18:26:03.010Z,3.20
2018-02-03T18:28:30.559Z,3.30
2018-02-03T18:30:58.071Z,3.30
2018-02-03T18:33:26.347Z,3.20
2018-02-03T18:35:53.874Z,3.20
2018-02-03T18:38:21.388Z,3.30
2018-02-03T18:40:49.697Z,3.40
2018-02-03T18:43:17.979Z,3.30
2018-02-03T18:45:46.281Z,3.30
2018-02-03T18:48:13.804Z,3.20
2018-02-03T18:50:42.134Z,3.00
2018-02-03T18:53:10.439Z,3.00
2018-02-03T18:55:38.120Z,3.00
2018-02-03T18:58:05.636Z,3.00
2018-02-03T19:00:33.198Z,3.00
2018-02-03T19:03:01.480Z,3.00
2018-02-03T19:05:29.011Z,3.00
2018-02-03T19:07:56.522Z,2.90
2018-02-03T19:10:24.055Z,2.90
2018-02-03T19:12:51.587Z,2.90
2018-02-03T19:15:19.102Z,2.80
2018-02-03T19:17:46.639Z,2.80
2018-02-03T19:20:14.180Z,2.80
2018-02-03T19:22:41.707Z,2.80
2018-02-03T19:25:09.243Z,2.80
2018-02-03T19:27:36.764Z,2.80
2018-02-03T19:30:04.319Z,2.80
2018-02-03T19:32:32.599Z,2.80
2018-02-03T19:35:00.880Z,2.80
2018-02-03T19:37:28.424Z,2.80
2018-02-03T19:39:55.963Z,2.80
2018-02-03T19:42:23.498Z,2.90
2018-02-03T19:44:51.804Z,2.80
2018-02-03T19:47:20.106Z,2.80
2018-02-03T19:49:47.635Z,2.80
2018-02-03T19:52:15.167Z,2.70
2018-02-03T19:54:42.671Z,2.70
2018-02-03T19:57:10.211Z,2.70
2018-02-03T19:59:37.719Z,2.70
2018-02-03T20:02:05.233Z,2.70
2018-02-03T20:04:32.789Z,2.60
2018-02-03T20:07:01.075Z,2.60
2018-02-03T20:09:28.679Z,2.60
2018-02-03T20:11:56.194Z,2.60
2018-02-03T20:14:23.725Z,2.70
2018-02-03T20:16:51.267Z,2.70
2018-02-03T20:19:19.587Z,2.50
2018-02-03T20:21:47.099Z,2.50
2018-02-03T20:24:14.634Z,2.50
2018-02-03T20:26:42.143Z,2.50
2018-02-03T20:29:09.684Z,2.50
2018-02-03T20:31:37.219Z,2.50
2018-02-03T20:34:04.735Z,2.50
2018-02-03T20:36:32.277Z,2.50
2018-02-03T20:38:59.781Z,2.40
2018-02-03T20:41:27.314Z,2.40
2018-02-03T20:43:54.827Z,2.40
2018-02-03T20:46:22.374Z,2.30
2018-02-03T20:48:49.887Z,2.30
2018-02-03T20:51:17.418Z,2.30
2018-02-03T20:53:44.963Z,2.30
2018-02-03T20:56:12.467Z,2.30
2018-02-03T20:58:39.978Z,2.30
2018-02-03T21:01:07.515Z,2.30
2018-02-03T21:03:35.028Z,2.30
2018-02-03T21:06:03.351Z,2.50
2018-02-03T21:08:30.883Z,2.40
2018-02-03T21:10:58.386Z,2.50
2018-02-03T21:13:25.922Z,2.50
2018-02-03T21:15:53.445Z,2.50
2018-02-03T21:18:20.996Z,2.40
2018-02-03T21:20:48.535Z,2.50
2018-02-03T21:23:16.042Z,2.50
2018-02-03T21:25:43.595Z,2.50
2018-02-03T21:28:11.871Z,2.60
2018-02-03T21:30:39.433Z,2.60
2018-02-03T21:33:06.940Z,2.60
2018-02-03T21:35:35.220Z,2.50
2018-02-03T21:38:03.524Z,2.50
2018-02-03T21:40:31.034Z,2.50
2018-02-03T21:42:58.604Z,2.40
2018-02-03T21:45:26.090Z,2.40
2018-02-03T21:47:53.628Z,2.40
2018-02-03T21:50:21.136Z,2.30
2018-02-03T21:52:48.679Z,2.40
2018-02-03T21:55:16.190Z,2.40
2018-02-03T21:57:43.720Z,2.50
2018-02-03T22:00:11.234Z,2.60
2018-02-03T22:02:38.772Z,2.60
2018-02-03T22:05:06.283Z,2.60
2018-02-03T22:07:34.696Z,2.50
2018-02-03T22:10:02.240Z,2.50
2018-02-03T22:12:29.746Z,2.60
2018-02-03T22:14:57.289Z,2.60
2018-02-03T22:17:24.790Z,2.60
2018-02-03T22:19:52.344Z,2.60
2018-02-03T22:22:20.626Z,2.60
2018-02-03T22:24:48.900Z,2.60
2018-02-03T22:27:16.434Z,2.60
2018-02-03T22:29:43.955Z,2.70
2018-02-03T22:32:11.488Z,2.70
2018-02-03T22:34:39.048Z,2.60
2018-02-03T22:37:06.563Z,2.70
2018-02-03T22:39:34.110Z,2.70
2018-02-03T22:42:01.618Z,2.80
2018-02-03T22:44:29.898Z,2.80
2018-02-03T22:46:57.440Z,2.80
2018-02-03T22:49:24.948Z,2.90
2018-02-03T22:51:53.255Z,2.80
2018-02-03T22:54:21.523Z,2.90
2018-02-03T22:56:49.826Z,2.80
2018-02-03T22:59:18.100Z,2.80
2018-02-03T23:01:46.395Z,2.80
2018-02-03T23:04:14.663Z,2.90
2018-02-03T23:06:42.193Z,2.90
2018-02-03T23:09:09.708Z,2.80
2018-02-03T23:11:37.275Z,2.80
2018-02-03T23:14:04.801Z,2.90
2018-02-03T23:16:32.313Z,2.80
2018-02-03T23:18:59.846Z,2.80
2018-02-03T23:21:27.351Z,2.90
2018-02-03T23:23:55.646Z,2.80
2018-02-03T23:26:23.194Z,2.80
2018-02-03T23:28:50.703Z,2.90
2018-02-03T23:31:18.241Z,2.90
2018-02-03T23:33:45.746Z,2.90
2018-02-03T23:36:13.270Z,2.90
2018-02-03T23:38:40.783Z,2.90
2018-02-03T23:41:08.322Z,3.00
2018-02-03T23:43:35.860Z,3.00
2018-02-03T23:46:03.383Z,3.00
2018-02-03T23:48:30.920Z,3.00
2018-02-03T23:50:58.431Z,3.00
2018-02-03T23:53:25.975Z,3.00
2018-02-03T23:55:53.483Z,3.00
2018-02-03T23:58:21.015Z,2.90
